YLRE

Details ICAO YLRE (LRE)
Name Longreach
Region Australia
Timezone Australia/Brisbane (UTC+10.0)
Plans Departing 9
Arriving 25
Stats Elevation 627 ft / 191 m (AMSL)
Location -23.434892° 144.276806°
Runways 2
Magnetic Variation 7.501° E
Sunrise 2017-12-15 19:32:39 UTC / 2017-12-16 05:32:39 Local
Sunset 2017-12-16 09:06:48 UTC / 2017-12-16 19:06:48 Local
Advertisement - Login to hide

Runways

ID Width Length Bearing (true) Bearing (mag) Surface Threshold Offset Overrun Length
04 82 ft / 25 m 6,351 ft / 1,936 m 46.40° 38.90° Asphalt 0 ft / 0 m 200 ft / 61 m
09 151 ft / 46 m 2,490 ft / 759 m 93.15° 85.65° Dirt 0 ft / 0 m 0 ft / 0 m
22 82 ft / 25 m 6,351 ft / 1,936 m 226.40° 218.90° Asphalt 0 ft / 0 m 210 ft / 64 m
27 151 ft / 46 m 2,490 ft / 759 m 273.14° 265.64° Dirt 0 ft / 0 m 0 ft / 0 m

Map

Weather


0- 5 10 15 20 25 30 35+ Temperature / ° C

Clouds and Precipitation
Forecast for 2017-12-16 00:00 UTC. Updated an hour ago

Ground ~20,000 ft ~40,000 ft Winds

METAR

YLRE 152000Z AUTO 03016KT 9999 // NCD 27/16 Q1011

TAF

Not found

Frequencies

Unicom 125.30 MHz ACTIVATE LIGHTS ONLY MULT
Unicom 126.70 MHz LONGREACH MULT
Unicom 122.10 MHz BRISBANE CENTRE MULT
Warning: Do not use this data for real-world aviation or navigation. No guarantee of current accuracy is given.